Terminal Aerodrome Forecast
Issued by NWS

Current Version | Previous Version | Text Only | Print | Product List | Glossary Off
Versions: 1 2 3 4 5 6 7 8 9 10 11 12 13 14

000
FTUS41 KPBZ 311730
TAFHLG
TAF
KHLG 311730Z 3118/0118 25005KT P6SM BKN035
     FM010800 00000KT 2SM BR SKC
     FM011400 26004KT P6SM SCT035=

USA.gov is the U.S. government's official web portal to all federal, state and local government web resources and services.